Time;durP1;ratioP1;P1;durP2;ratioP2;P2;SDS_P1;SDS_P2;PMS_P1;PMS_P2;Temp;Humidity;BMP_temperature;BMP_pressure;BME280_temperature;BME280_humidity;BME280_pressure;Samples;Min_cycle;Max_cycle;Signal;HPM_P1;HPM_P2
2022/09/04 00:02:25;;;;;;;7.15;4.95;;;;;;;15.13;100.00;100351.25;5052711;28;20040;-74
2022/09/04 00:05:19;;;;;;;8.43;5.78;;;;;;;15.07;100.00;100349.00;5043954;28;20040;-72
2022/09/04 00:07:53;;;;;;;7.90;5.05;;;;;;;15.04;100.00;100349.22;5048597;28;20021;-72
2022/09/04 00:10:30;;;;;;;5.97;5.07;;;;;;;15.02;100.00;100352.94;5047184;28;20032;-71
2022/09/04 00:13:11;;;;;;;6.35;4.90;;;;;;;15.04;100.00;100359.81;5052643;28;20029;-72
2022/09/04 00:15:43;;;;;;;6.78;5.45;;;;;;;14.90;100.00;100346.69;5052652;28;20044;-72
2022/09/04 00:18:14;;;;;;;7.25;5.63;;;;;;;15.07;100.00;100367.53;5031804;28;20033;-71
2022/09/04 00:20:42;;;;;;;6.85;6.00;;;;;;;15.06;100.00;100365.84;5043252;28;20063;-72
2022/09/04 00:23:33;;;;;;;9.25;5.03;;;;;;;15.02;100.00;100361.72;5056974;28;20200;-72
2022/09/04 00:26:13;;;;;;;6.68;5.10;;;;;;;14.94;100.00;100366.69;5071792;28;20032;-73
2022/09/04 00:29:03;;;;;;;7.55;5.30;;;;;;;14.99;100.00;100371.66;5051680;28;20039;-73
2022/09/04 00:31:36;;;;;;;7.38;4.40;;;;;;;15.00;100.00;100378.66;5052279;28;20495;-73
2022/09/04 00:34:25;;;;;;;9.98;5.53;;;;;;;15.00;100.00;100376.03;5051900;28;20039;-73
2022/09/04 00:36:53;;;;;;;7.38;5.50;;;;;;;14.77;100.00;100340.53;5039149;28;20029;-74
2022/09/04 00:39:23;;;;;;;5.10;4.28;;;;;;;14.96;100.00;100370.09;5051895;28;20100;-74
2022/09/04 00:42:03;;;;;;;7.45;5.20;;;;;;;15.02;100.00;100374.94;5051972;28;20036;-74
2022/09/04 00:44:48;;;;;;;6.28;4.65;;;;;;;14.83;100.00;100341.00;5065071;28;20079;-73
2022/09/04 00:47:51;;;;;;;6.05;4.95;;;;;;;15.01;100.00;100375.91;5051333;28;20040;-73
2022/09/04 00:50:30;;;;;;;9.93;5.72;;;;;;;14.98;100.00;100372.59;5041639;28;20666;-73
2022/09/04 00:52:56;;;;;;;7.88;4.80;;;;;;;14.97;100.00;100378.88;5053401;28;20025;-75
2022/09/04 00:55:38;;;;;;;6.63;4.38;;;;;;;14.95;100.00;100388.69;5052276;28;20377;-74
2022/09/04 00:58:09;;;;;;;6.28;4.80;;;;;;;14.93;100.00;100386.19;5050004;28;20062;-73
2022/09/04 01:00:35;;;;;;;6.13;4.95;;;;;;;14.92;100.00;100381.81;5038758;28;20041;-74
2022/09/04 01:03:06;;;;;;;6.18;4.47;;;;;;;14.90;100.00;100383.75;5050325;28;20032;-74
2022/09/04 01:05:49;;;;;;;6.95;4.75;;;;;;;14.88;100.00;100390.91;5052759;28;20051;-73
2022/09/04 01:08:27;;;;;;;6.35;4.65;;;;;;;14.80;100.00;100382.69;5051440;28;20503;-73
2022/09/04 01:11:31;;;;;;;5.97;5.15;;;;;;;14.84;100.00;100394.72;5050249;28;20044;-75
2022/09/04 01:14:11;;;;;;;7.55;3.92;;;;;;;14.78;100.00;100396.00;5050460;28;20455;-75
2022/09/04 01:16:53;;;;;;;4.57;3.63;;;;;;;14.82;100.00;100407.22;5050616;28;20032;-75
2022/09/04 01:19:43;;;;;;;6.97;5.03;;;;;;;14.82;100.00;100408.06;5050872;28;20044;-75
2022/09/04 01:22:31;;;;;;;7.38;4.53;;;;;;;14.82;100.00;100407.22;5052303;28;20028;-75
2022/09/04 01:25:08;;;;;;;6.88;4.80;;;;;;;14.82;100.00;100409.88;5032067;28;20827;-75
2022/09/04 01:27:50;;;;;;;5.20;4.45;;;;;;;14.83;100.00;100412.41;5045825;28;20099;-75
2022/09/04 01:30:17;;;;;;;4.95;4.35;;;;;;;14.84;100.00;100411.44;5039254;28;20025;-75
2022/09/04 01:33:05;;;;;;;6.65;4.88;;;;;;;14.83;100.00;100422.16;5036629;28;20108;-75
2022/09/04 01:35:44;;;;;;;7.95;3.72;;;;;;;14.82;100.00;100416.00;5040386;28;20029;-74
2022/09/04 01:38:15;;;;;;;7.32;4.00;;;;;;;14.80;100.00;100420.53;5049799;28;20043;-73
2022/09/04 01:40:56;;;;;;;10.90;4.57;;;;;;;14.78;100.00;100426.88;5051073;28;20248;-73
2022/09/04 01:43:22;;;;;;;5.00;4.03;;;;;;;14.73;100.00;100421.94;5050321;28;20390;-73
2022/09/04 01:46:06;;;;;;;6.40;4.18;;;;;;;14.71;100.00;100423.81;5063994;28;20032;-71
2022/09/04 01:48:42;;;;;;;10.25;4.40;;;;;;;14.69;100.00;100427.50;5051838;28;20065;-72
2022/09/04 01:51:45;;;;;;;5.53;4.05;;;;;;;14.63;100.00;100427.94;5038087;28;20036;-73
2022/09/04 01:54:45;;;;;;;7.53;3.72;;;;;;;14.64;100.00;100435.75;5045717;28;20377;-73
2022/09/04 01:57:21;;;;;;;7.40;4.32;;;;;;;14.63;100.00;100439.31;5047292;28;20029;-72
2022/09/04 01:59:47;;;;;;;4.88;3.20;;;;;;;14.62;100.00;100434.16;5050118;28;20035;-72
2022/09/04 02:02:52;;;;;;;4.10;3.10;;;;;;;14.60;100.00;100438.72;5065451;28;20028;-72
2022/09/04 02:05:52;;;;;;;5.05;3.67;;;;;;;14.58;100.00;100446.72;5040098;28;20052;-72
2022/09/04 02:08:34;;;;;;;5.57;3.88;;;;;;;14.52;100.00;100431.28;5044135;28;20108;-72
2022/09/04 02:11:29;;;;;;;4.32;3.50;;;;;;;14.56;100.00;100453.06;5047353;28;20099;-72
2022/09/04 02:14:10;;;;;;;6.10;4.55;;;;;;;14.55;100.00;100456.66;5039818;28;20124;-73
2022/09/04 02:16:47;;;;;;;4.70;3.50;;;;;;;14.53;100.00;100453.28;5049903;28;20017;-73
2022/09/04 02:19:33;;;;;;;5.18;3.80;;;;;;;14.52;100.00;100455.06;5045102;28;20114;-70
2022/09/04 02:22:36;;;;;;;6.65;4.07;;;;;;;14.52;100.00;100454.22;5050948;28;20072;-73
2022/09/04 02:25:29;;;;;;;4.50;3.90;;;;;;;14.52;100.00;100448.94;5035856;28;20483;-72
2022/09/04 02:28:13;;;;;;;11.40;3.90;;;;;;;14.52;100.00;100456.88;5048175;28;20032;-73
2022/09/04 02:31:07;;;;;;;5.80;3.43;;;;;;;14.52;100.00;100456.88;5039483;28;20068;-73
2022/09/04 02:33:57;;;;;;;4.97;3.80;;;;;;;14.49;100.00;100457.06;5040347;28;20044;-72
2022/09/04 02:36:43;;;;;;;4.72;3.45;;;;;;;14.49;100.00;100462.34;5049421;28;20035;-72
2022/09/04 02:39:16;;;;;;;5.55;3.90;;;;;;;14.52;100.00;100467.44;5046701;28;20040;-72
2022/09/04 02:41:49;;;;;;;7.03;4.07;;;;;;;14.50;100.00;100464.06;5053996;28;20108;-72
2022/09/04 02:44:33;;;;;;;5.13;3.90;;;;;;;14.51;100.00;100476.31;5038415;28;20068;-72
2022/09/04 02:47:05;;;;;;;7.23;4.07;;;;;;;14.53;100.00;100469.16;5062350;28;20275;-71
2022/09/04 02:49:55;;;;;;;6.78;4.35;;;;;;;14.53;100.00;100469.97;5029587;28;20029;-72
2022/09/04 02:52:38;;;;;;;7.60;4.25;;;;;;;14.52;100.00;100464.78;5047743;28;20403;-72
2022/09/04 02:55:43;;;;;;;4.50;3.90;;;;;;;14.56;100.00;100471.59;5047347;28;20033;-72
2022/09/04 02:58:46;;;;;;;12.88;4.35;;;;;;;14.55;100.00;100469.88;5051767;28;20045;-72
2022/09/04 03:01:24;;;;;;;6.63;4.05;;;;;;;14.44;100.00;100453.84;5033518;28;20703;-72
2022/09/04 03:04:07;;;;;;;4.88;3.95;;;;;;;14.53;100.00;100475.25;5038642;28;20036;-73
2022/09/04 03:07:13;;;;;;;5.68;4.93;;;;;;;14.53;100.00;100474.44;5040301;28;20523;-72
2022/09/04 03:09:45;;;;;;;6.05;4.15;;;;;;;14.41;100.00;100454.06;5043939;28;20083;-72
2022/09/04 03:12:39;;;;;;;5.50;4.50;;;;;;;14.42;100.00;100455.75;5032920;28;20040;-72
2022/09/04 03:15:19;;;;;;;6.18;4.07;;;;;;;14.41;100.00;100470.78;5027428;28;20116;-72
2022/09/04 03:17:57;;;;;;;6.10;4.18;;;;;;;14.18;100.00;100427.31;5047926;28;20033;-72
2022/09/04 03:20:25;;;;;;;5.00;4.28;;;;;;;14.48;100.00;100479.16;5042803;28;20021;-73
2022/09/04 03:22:57;;;;;;;5.70;4.68;;;;;;;14.46;100.00;100478.41;5049858;28;20566;-73
2022/09/04 03:25:47;;;;;;;7.78;4.30;;;;;;;14.46;100.00;100483.72;5048892;28;20643;-72
2022/09/04 03:28:20;;;;;;;7.88;4.57;;;;;;;14.40;100.00;100477.00;5048266;28;20025;-72
2022/09/04 03:30:47;;;;;;;6.60;4.50;;;;;;;14.46;100.00;100489.00;5049399;28;20060;-72
2022/09/04 03:33:30;;;;;;;6.97;4.50;;;;;;;14.46;100.00;100489.00;5039639;28;20020;-72
2022/09/04 03:36:07;;;;;;;5.72;4.53;;;;;;;14.45;100.00;100492.56;5040365;28;20068;-72
2022/09/04 03:38:42;;;;;;;4.75;3.75;;;;;;;14.44;100.00;100486.44;5045475;28;20044;-72
2022/09/04 03:41:10;;;;;;;7.13;4.70;;;;;;;14.44;100.00;100490.88;5050671;28;20044;-73
2022/09/04 03:44:02;;;;;;;6.22;4.40;;;;;;;14.38;100.00;100485.97;5050100;28;20123;-73
2022/09/04 03:46:40;;;;;;;6.43;4.90;;;;;;;14.43;100.00;100487.38;5029240;28;20044;-73
2022/09/04 03:49:20;;;;;;;7.78;5.22;;;;;;;14.43;100.00;100499.78;5047787;28;20036;-72
2022/09/04 03:52:00;;;;;;;5.30;4.72;;;;;;;14.45;100.00;100500.50;5050679;28;20476;-72
2022/09/04 03:54:50;;;;;;;6.28;5.05;;;;;;;14.44;100.00;100506.75;5047940;28;20025;-72
2022/09/04 03:57:18;;;;;;;5.82;4.95;;;;;;;14.46;100.00;100507.50;5051123;28;20029;-72
2022/09/04 04:00:10;;;;;;;19.33;5.78;;;;;;;14.46;100.00;100504.88;5050754;28;20590;-72
2022/09/04 04:03:06;;;;;;;7.07;4.90;;;;;;;14.46;100.00;100511.00;5051945;28;20017;-72
2022/09/04 04:05:56;;;;;;;6.00;5.40;;;;;;;14.48;100.00;100514.38;5048010;28;20460;-72
2022/09/04 04:08:45;;;;;;;6.72;5.82;;;;;;;14.47;100.00;100512.69;5040110;28;20108;-72
2022/09/04 04:11:19;;;;;;;5.90;5.30;;;;;;;14.47;100.00;100511.81;5052780;28;20052;-73
2022/09/04 04:14:06;;;;;;;6.57;5.40;;;;;;;14.47;100.00;100527.69;5055319;28;20662;-73
2022/09/04 04:16:53;;;;;;;7.78;5.55;;;;;;;14.47;100.00;100517.13;5033712;28;20035;-69
2022/09/04 04:19:25;;;;;;;7.05;5.40;;;;;;;14.39;100.00;100498.28;5053251;28;20037;-72
2022/09/04 04:21:56;;;;;;;8.07;5.70;;;;;;;14.45;100.00;100513.72;5052237;28;20052;-72
2022/09/04 04:24:56;;;;;;;6.90;5.60;;;;;;;14.48;100.00;100518.81;5049937;28;20495;-72
2022/09/04 04:27:34;;;;;;;9.50;5.68;;;;;;;14.49;100.00;100520.53;5041987;28;20024;-72
2022/09/04 04:30:13;;;;;;;6.68;5.95;;;;;;;14.50;100.00;100522.22;5057415;28;20067;-72
2022/09/04 04:33:32;;;;;;;7.05;5.90;;;;;;;14.50;100.00;100522.22;5058377;28;20622;-72
2022/09/04 04:36:14;;;;;;;7.80;5.72;;;;;;;14.49;100.00;100529.31;5050362;28;20068;-72
2022/09/04 04:39:18;;;;;;;9.43;5.82;;;;;;;14.48;100.00;100534.69;5055545;28;20111;-73
2022/09/04 04:42:04;;;;;;;7.40;6.28;;;;;;;14.47;100.00;100530.34;5051795;28;20565;-72
2022/09/04 04:48:44;;;;;;;6.65;5.53;;;;;;;14.48;100.00;100538.19;5040894;28;20063;-72
2022/09/04 04:51:18;;;;;;;6.15;5.40;;;;;;;14.48;100.00;100535.53;5045515;28;20485;-73
2022/09/04 04:54:08;;;;;;;7.13;5.78;;;;;;;14.48;100.00;100540.81;5050515;28;20104;-73
2022/09/04 04:56:47;;;;;;;8.93;5.32;;;;;;;14.47;100.00;100538.25;5049421;28;20037;-72
2022/09/04 04:59:19;;;;;;;6.80;5.78;;;;;;;14.47;100.00;100543.56;5050820;28;20032;-72
2022/09/04 05:01:50;;;;;;;7.78;6.07;;;;;;;14.46;100.00;100552.44;5050728;28;20036;-73
2022/09/04 05:04:46;;;;;;;10.40;6.20;;;;;;;14.38;100.00;100544.16;5052965;28;20041;-72
2022/09/04 05:07:33;;;;;;;10.40;6.50;;;;;;;14.50;100.00;100565.38;5045864;28;20530;-74
2022/09/04 05:10:28;;;;;;;7.80;5.97;;;;;;;14.54;100.00;100571.31;5064192;28;20043;-74
2022/09/04 05:13:15;;;;;;;6.88;6.18;;;;;;;14.54;100.00;100573.94;5066735;28;20053;-74
2022/09/04 05:16:02;;;;;;;7.40;6.57;;;;;;;14.55;100.00;100571.22;5071951;28;20035;-74
2022/09/04 05:18:32;;;;;;;7.80;7.00;;;;;;;14.47;100.00;100559.41;5056842;28;20024;-74
2022/09/04 05:21:09;;;;;;;7.38;6.68;;;;;;;14.57;100.00;100577.25;5069034;28;20029;-74
2022/09/04 05:23:59;;;;;;;12.38;6.85;;;;;;;14.59;100.00;100585.97;5067276;28;20546;-74
2022/09/04 05:26:32;;;;;;;8.15;7.05;;;;;;;14.60;100.00;100586.81;5015822;28;20032;-75
2022/09/04 05:29:04;;;;;;;8.48;7.57;;;;;;;14.63;100.00;100589.25;5077723;28;20070;-74
2022/09/04 05:31:41;;;;;;;10.00;7.63;;;;;;;14.65;100.00;100592.63;5033286;28;20038;-74
2022/09/04 05:34:28;;;;;;;8.15;7.32;;;;;;;14.68;100.00;100592.44;5021616;28;20033;-75
2022/09/04 05:37:16;;;;;;;8.85;7.70;;;;;;;14.72;100.00;100596.59;5023648;28;20901;-74
2022/09/04 05:39:41;;;;;;;9.25;7.93;;;;;;;14.76;100.00;100598.94;5027664;28;20124;-74
2022/09/04 05:42:37;;;;;;;10.88;8.18;;;;;;;14.80;100.00;100603.06;5030381;28;20379;-74
2022/09/04 05:45:23;;;;;;;11.23;8.13;;;;;;;14.86;100.00;100608.94;5027922;28;20107;-73
2022/09/04 05:48:01;;;;;;;9.43;7.50;;;;;;;14.91;100.00;100612.97;5031863;28;20931;-74
2022/09/04 05:50:40;;;;;;;12.48;7.82;;;;;;;14.98;100.00;100613.41;5039335;28;20033;-73
2022/09/04 05:53:47;;;;;;;8.70;7.35;;;;;;;15.00;100.00;100615.03;5015099;28;20067;-73
2022/09/04 05:56:35;;;;;;;10.95;8.48;;;;;;;15.10;100.00;100613.50;5022900;28;20147;-73
2022/09/04 05:59:15;;;;;;;10.25;7.55;;;;;;;15.17;100.00;100629.81;5005297;28;20028;-73
2022/09/04 06:02:00;;;;;;;10.65;8.35;;;;;;;15.23;100.00;100629.41;5029501;28;20775;-73
2022/09/04 06:04:44;;;;;;;;;;;;;;;15.30;100.00;100628.06;5051837;28;20028;-73
2022/09/04 06:07:28;;;;;;;9.13;7.00;;;;;;;15.35;100.00;100629.44;5011277;28;19925;-73
2022/09/04 06:10:12;;;;;;;8.30;6.97;;;;;;;15.41;100.00;100633.47;5002434;28;20048;-73
2022/09/04 06:12:54;;;;;;;8.82;7.78;;;;;;;15.48;100.00;100628.66;5032909;28;20132;-73
2022/09/04 06:15:36;;;;;;;8.90;8.00;;;;;;;15.53;100.00;100629.22;5035162;28;20037;-73
2022/09/04 06:18:32;;;;;;;13.60;8.05;;;;;;;15.51;100.00;100617.88;5031468;28;20029;-73
2022/09/04 06:21:13;;;;;;;16.83;7.28;;;;;;;15.64;100.00;100634.66;5029450;28;20037;-74
2022/09/04 06:23:47;;;;;;;8.82;7.85;;;;;;;15.63;100.00;100625.00;5030060;28;20086;-73
2022/09/04 06:26:34;;;;;;;10.02;6.90;;;;;;;15.75;100.00;100632.94;5050389;28;20107;-74
2022/09/04 06:29:17;;;;;;;9.15;7.43;;;;;;;15.82;100.00;100633.38;5026603;28;20827;-73
2022/09/04 06:32:05;;;;;;;8.18;7.38;;;;;;;15.87;100.00;100636.59;5038625;28;20051;-72
2022/09/04 06:35:15;;;;;;;9.75;6.97;;;;;;;15.97;100.00;100632.34;5048601;28;20245;-71
2022/09/04 06:37:55;;;;;;;8.40;6.88;;;;;;;16.08;100.00;100643.06;5027027;28;20095;-72
2022/09/04 06:40:45;;;;;;;11.05;6.22;;;;;;;16.15;100.00;100643.50;5033649;28;20037;-73
2022/09/04 06:43:32;;;;;;;7.88;6.78;;;;;;;16.22;100.00;100650.91;5037388;28;20036;-73
2022/09/04 06:46:19;;;;;;;9.30;6.15;;;;;;;16.26;100.00;100649.72;5022269;28;20028;-73
2022/09/04 06:48:56;;;;;;;8.45;5.60;;;;;;;16.35;100.00;100646.47;5035052;28;20029;-72
2022/09/04 06:51:43;;;;;;;8.93;5.18;;;;;;;16.43;100.00;100650.34;5042162;28;20143;-73
2022/09/04 06:54:40;;;;;;;7.70;5.70;;;;;;;16.52;100.00;100655.03;5039360;28;20060;-73
2022/09/04 06:57:34;;;;;;;7.57;4.72;;;;;;;16.60;100.00;100652.69;5025614;28;20053;-73
2022/09/04 07:00:12;;;;;;;7.17;5.27;;;;;;;16.67;100.00;100654.81;5037496;28;20059;-73
2022/09/04 07:03:05;;;;;;;7.55;5.10;;;;;;;16.76;100.00;100653.31;5037929;28;20033;-72
2022/09/04 07:05:53;;;;;;;7.00;4.95;;;;;;;16.84;100.00;100664.22;5017312;28;20049;-72
2022/09/04 07:08:34;;;;;;;6.20;4.38;;;;;;;16.90;100.00;100655.81;5039179;28;20092;-72
2022/09/04 07:11:24;;;;;;;7.65;5.00;;;;;;;17.01;100.00;100663.84;5027493;28;20044;-72
2022/09/04 07:13:53;;;;;;;5.22;4.25;;;;;;;17.12;100.00;100668.38;5028624;28;20037;-72
2022/09/04 07:16:40;;;;;;;4.13;3.28;;;;;;;17.21;100.00;100676.53;5035521;28;20130;-72
2022/09/04 07:19:23;;;;;;;4.95;3.45;;;;;;;17.30;100.00;100670.53;5031379;28;20037;-72
2022/09/04 07:22:16;;;;;;;5.40;4.00;;;;;;;17.41;100.00;100679.50;5037517;28;20033;-72
2022/09/04 07:25:00;;;;;;;8.27;4.10;;;;;;;17.49;100.00;100685.13;5035918;28;20067;-72
2022/09/04 07:28:01;;;;;;;5.68;3.97;;;;;;;17.59;100.00;100684.38;5037339;28;20128;-72
2022/09/04 07:30:30;;;;;;;5.78;3.25;;;;;;;17.70;100.00;100683.56;5037947;28;20045;-72
2022/09/04 07:32:58;;;;;;;6.25;4.03;;;;;;;17.79;100.00;100688.19;5037617;28;20033;-72
2022/09/04 07:35:41;;;;;;;4.78;3.58;;;;;;;17.88;100.00;100690.13;5039570;28;20035;-72
2022/09/04 07:38:34;;;;;;;5.32;3.30;;;;;;;17.98;100.00;100692.97;5042201;28;20060;-72
2022/09/04 07:41:15;;;;;;;5.55;3.67;;;;;;;18.03;100.00;100690.78;5040143;28;20037;-73
2022/09/04 07:43:49;;;;;;;5.50;3.30;;;;;;;18.21;100.00;100690.25;5039502;28;20064;-73
2022/09/04 07:46:47;;;;;;;6.47;4.50;;;;;;;18.36;100.00;100697.00;5042240;28;20051;-73
2022/09/04 07:49:31;;;;;;;8.98;3.65;;;;;;;18.43;100.00;100688.56;5042557;28;20028;-73
2022/09/04 07:52:02;;;;;;;4.57;3.53;;;;;;;18.59;100.00;100700.56;5047968;28;20120;-73
2022/09/04 07:54:36;;;;;;;4.78;3.40;;;;;;;18.67;100.00;100702.63;5038674;28;20037;-73
2022/09/04 07:57:29;;;;;;;5.68;3.72;;;;;;;18.72;100.00;100690.66;5041708;28;20043;-73
2022/09/04 08:00:14;;;;;;;4.38;3.25;;;;;;;18.85;100.00;100707.38;5045707;28;20090;-73
2022/09/04 08:03:01;;;;;;;5.72;4.30;;;;;;;18.97;100.00;100710.84;5048435;28;20571;-72
2022/09/04 08:05:50;;;;;;;10.23;4.35;;;;;;;19.07;100.00;100709.16;5037833;28;20728;-72
2022/09/04 08:08:18;;;;;;;6.85;4.35;;;;;;;19.19;100.00;100709.97;5043837;28;20033;-72
2022/09/04 08:11:04;;;;;;;6.35;4.25;;;;;;;19.26;100.00;100712.00;5050402;28;20025;-72
2022/09/04 08:13:54;;;;;;;4.72;3.55;;;;;;;19.34;100.00;100714.06;5038843;28;20071;-72
2022/09/04 08:16:55;;;;;;;6.97;4.35;;;;;;;19.45;100.00;100718.53;5042845;28;20028;-73
2022/09/04 08:19:40;;;;;;;6.20;3.58;;;;;;;19.55;100.00;100719.47;5038748;28;20037;-73
2022/09/04 08:22:12;;;;;;;5.97;3.40;;;;;;;19.65;100.00;100723.09;5037526;28;20059;-72
2022/09/04 08:24:59;;;;;;;5.05;3.30;;;;;;;19.74;100.00;100725.81;5038486;28;20043;-71
2022/09/04 08:27:33;;;;;;;5.13;3.65;;;;;;;19.83;100.00;100727.75;5029644;28;20041;-72
2022/09/04 08:30:07;;;;;;;11.43;3.47;;;;;;;19.94;100.00;100732.16;5022640;28;20048;-70
2022/09/04 08:32:51;;;;;;;5.13;3.95;;;;;;;19.99;100.00;100732.63;5015518;28;20048;-72
2022/09/04 08:35:30;;;;;;;6.23;3.07;;;;;;;20.09;100.00;100735.38;5037516;28;20827;-72
2022/09/04 08:38:00;;;;;;;11.15;4.00;;;;;;;20.13;100.00;100732.31;5033591;28;20330;-72
2022/09/04 08:40:34;;;;;;;5.85;3.15;;;;;;;20.21;100.00;100727.16;5040318;28;20144;-72
2022/09/04 08:43:02;;;;;;;;;;;;;;;20.26;100.00;100730.31;5038068;28;20103;-72
2022/09/04 08:45:54;;;;;;;7.90;3.33;;;;;;;20.40;100.00;100739.84;5037766;28;19916;-72
2022/09/04 08:48:25;;;;;;;7.30;3.22;;;;;;;20.47;100.00;100743.69;5029619;28;20124;-72
2022/09/04 08:51:06;;;;;;;7.00;3.13;;;;;;;20.61;100.00;100742.50;5041548;28;20043;-72
2022/09/04 08:54:01;;;;;;;8.35;3.92;;;;;;;20.73;100.00;100744.09;5041663;28;20096;-72
2022/09/04 08:56:34;;;;;;;7.85;2.80;;;;;;;20.83;100.00;100740.50;5038356;28;20091;-72
2022/09/04 08:59:24;;;;;;;6.18;3.28;;;;;;;20.98;100.00;100738.31;5039928;28;20065;-72
2022/09/04 09:02:26;;;;;;;4.72;3.25;;;;;;;21.09;100.00;100740.03;5032721;28;20037;-72
2022/09/04 09:04:54;;;;;;;7.45;3.10;;;;;;;21.21;100.00;100747.84;5036790;28;20043;-72
2022/09/04 09:08:05;;;;;;;6.72;3.10;;;;;;;21.28;100.00;100745.47;5025898;28;20094;-73
2022/09/04 09:10:42;;;;;;;5.63;2.95;;;;;;;21.34;100.00;100745.75;4997847;28;20041;-72
2022/09/04 09:13:47;;;;;;;4.97;3.38;;;;;;;21.40;100.00;100745.19;4978749;28;20045;-72
2022/09/04 09:16:19;;;;;;;5.80;3.30;;;;;;;21.48;100.00;100751.69;5034249;28;21942;-73
2022/09/04 09:18:59;;;;;;;5.00;3.00;;;;;;;21.55;100.00;100747.50;5042543;28;20052;-73
2022/09/04 09:21:30;;;;;;;5.10;2.95;;;;;;;21.62;100.00;100748.63;5041096;28;20116;-73
2022/09/04 09:24:07;;;;;;;5.75;3.05;;;;;;;21.65;100.00;100749.19;5032832;28;20039;-73
2022/09/04 09:26:37;;;;;;;4.85;3.28;;;;;;;21.69;100.00;100747.94;5038255;28;20021;-73
2022/09/04 09:29:09;;;;;;;6.65;3.95;;;;;;;21.73;100.00;100748.50;5026795;28;20059;-73
2022/09/04 09:32:02;;;;;;;4.40;3.10;;;;;;;21.83;100.00;100741.31;5043153;28;20047;-73
2022/09/04 09:34:39;;;;;;;5.32;3.22;;;;;;;21.95;100.00;100742.91;5034114;28;20040;-73
2022/09/04 09:37:43;;;;;;;11.95;3.40;;;;;;;22.01;100.00;100747.69;5046792;28;20033;-72
2022/09/04 09:40:27;;;;;;;6.18;3.22;;;;;;;22.06;100.00;100742.75;5043984;28;20082;-72
2022/09/04 09:43:30;;;;;;;6.38;2.97;;;;;;;22.15;100.00;100752.59;5058227;28;20039;-73
2022/09/04 09:46:20;;;;;;;5.38;3.03;;;;;;;22.30;100.00;100748.50;5042536;28;20147;-71
2022/09/04 09:49:22;;;;;;;4.78;3.10;;;;;;;22.39;100.00;100750.31;5048189;28;20107;-72
2022/09/04 09:52:01;;;;;;;5.43;2.95;;;;;;;22.53;100.00;100746.34;5083716;28;20025;-68
2022/09/04 09:54:45;;;;;;;8.05;2.53;;;;;;;22.66;100.00;100751.38;5058617;28;20107;-67
2022/09/04 09:57:26;;;;;;;6.15;2.90;;;;;;;22.68;100.00;100754.78;5056231;28;20028;-68
2022/09/04 09:59:54;;;;;;;6.65;2.83;;;;;;;22.81;100.00;100755.31;5052001;28;20677;-71
2022/09/04 10:02:51;;;;;;;3.80;2.30;;;;;;;22.93;100.00;100754.13;5063829;28;20047;-69
2022/09/04 10:05:53;;;;;;;12.60;2.72;;;;;;;23.01;100.00;100754.25;5047475;28;20033;-67
2022/09/04 10:08:39;;;;;;;6.32;2.28;;;;;;;23.12;100.00;100753.19;5041567;28;20108;-68
2022/09/04 10:11:49;;;;;;;7.47;2.60;;;;;;;23.19;100.00;100744.41;5042848;28;20071;-68
2022/09/04 10:14:52;;;;;;;4.20;2.47;;;;;;;23.35;100.00;100754.50;5003900;28;20514;-67
2022/09/04 10:17:55;;;;;;;3.42;2.15;;;;;;;23.50;100.00;100754.84;5042753;28;20039;-71
2022/09/04 10:20:48;;;;;;;3.85;2.35;;;;;;;23.64;100.00;100759.69;5033194;28;20818;-67
2022/09/04 10:23:32;;;;;;;4.25;2.33;;;;;;;23.76;100.00;100753.13;5064072;28;20036;-73
2022/09/04 10:26:17;;;;;;;3.25;1.98;;;;;;;23.89;100.00;100753.59;5049067;28;20032;-75
2022/09/04 10:29:09;;;;;;;3.35;2.00;;;;;;;23.95;100.00;100752.97;5037858;28;20043;-72
2022/09/04 10:31:56;;;;;;;3.22;1.85;;;;;;;24.01;100.00;100760.41;5040222;28;20029;-72
2022/09/04 10:34:24;;;;;;;3.80;2.20;;;;;;;24.06;100.00;100754.59;5041560;28;20052;-73
2022/09/04 10:37:11;;;;;;;3.70;2.00;;;;;;;23.96;100.00;100753.81;5046137;28;20040;-74
2022/09/04 10:43:16;;;;;;;5.97;2.70;;;;;;;23.96;100.00;100754.66;5017876;28;20550;-72
2022/09/04 10:46:05;;;;;;;4.28;1.70;;;;;;;23.96;100.00;100754.66;5052607;28;20044;-67
2022/09/04 10:49:29;;;;;;;5.00;1.88;;;;;;;24.12;100.00;100753.94;5053289;28;20039;-67
2022/09/04 10:52:04;;;;;;;4.00;2.22;;;;;;;24.37;100.00;100748.63;5014901;28;20042;-69
2022/09/04 10:54:43;;;;;;;4.47;2.42;;;;;;;24.45;100.00;100749.69;5045088;28;20049;-67
2022/09/04 10:57:27;;;;;;;3.35;1.98;;;;;;;24.39;100.00;100754.72;5046857;28;20040;-72
2022/09/04 11:00:25;;;;;;;12.50;3.05;;;;;;;24.48;100.00;100738.63;5040916;28;20075;-73
2022/09/04 11:03:10;;;;;;;4.93;2.15;;;;;;;24.63;99.74;100747.81;5042992;28;20051;-69
2022/09/04 11:06:01;;;;;;;13.38;2.53;;;;;;;24.75;100.00;100746.53;5045088;28;20108;-71
2022/09/04 11:09:08;;;;;;;7.55;2.17;;;;;;;24.98;95.34;100746.84;5023230;28;20037;-70
2022/09/04 11:11:57;;;;;;;7.10;2.83;;;;;;;25.20;100.00;100730.13;5022107;28;20788;-72
2022/09/04 11:14:37;;;;;;;5.28;2.75;;;;;;;25.20;100.00;100731.00;5028590;28;20079;-72
2022/09/04 11:17:21;;;;;;;3.42;1.70;;;;;;;25.09;92.56;100750.09;5041303;28;20037;-72
2022/09/04 11:20:24;;;;;;;3.92;2.05;;;;;;;25.11;94.20;100756.16;5045204;28;20799;-72
2022/09/04 11:23:17;;;;;;;4.57;2.22;;;;;;;25.45;86.35;100741.84;5044331;28;20075;-71
2022/09/04 11:25:46;;;;;;;4.45;1.67;;;;;;;25.55;84.58;100746.06;5042260;28;20037;-72
2022/09/04 11:28:19;;;;;;;4.15;2.13;;;;;;;25.52;82.60;100741.00;5044431;28;20025;-71
2022/09/04 11:31:09;;;;;;;3.75;1.90;;;;;;;25.62;81.17;100746.28;5044930;28;20033;-71
2022/09/04 11:33:49;;;;;;;3.53;1.85;;;;;;;25.85;nan;100744.63;5046047;28;20481;-72
2022/09/04 11:36:52;;;;;;;3.97;2.05;;;;;;;26.18;81.91;100751.75;5043723;28;20127;-71
2022/09/04 11:39:39;;;;;;;5.15;2.17;;;;;;;26.10;91.85;100740.91;5037161;28;20072;-71
2022/09/04 11:42:29;;;;;;;4.43;2.10;;;;;;;26.37;79.31;100737.06;5046306;28;20060;-71
2022/09/04 11:45:12;;;;;;;3.42;2.00;;;;;;;27.58;78.53;100749.34;5044721;28;20033;-72
2022/09/04 11:47:58;;;;;;;4.32;2.30;;;;;;;28.01;71.37;100746.00;5054862;28;20119;-72
2022/09/04 11:50:39;;;;;;;7.95;2.20;;;;;;;27.99;73.59;100731.81;5042922;28;20037;-73
2022/09/04 11:53:19;;;;;;;4.03;1.80;;;;;;;28.58;72.20;100753.63;5041422;28;20894;-72
2022/09/04 11:55:53;;;;;;;2.67;1.60;;;;;;;29.04;66.53;100749.75;5041301;28;20041;-72
2022/09/04 11:58:40;;;;;;;3.10;1.35;;;;;;;28.20;66.72;100750.94;5030874;28;20030;-72
2022/09/04 12:01:28;;;;;;;4.90;1.52;;;;;;;28.06;65.91;100746.31;5043861;28;20047;-72
2022/09/04 12:04:24;;;;;;;3.42;1.55;;;;;;;28.81;66.88;100749.00;5044656;28;20039;-73
2022/09/04 12:07:07;;;;;;;7.05;1.80;;;;;;;28.97;62.11;100751.50;5048254;28;20033;-72
2022/09/04 12:10:17;;;;;;;7.30;1.45;;;;;;;28.34;67.07;100747.44;5057714;28;20064;-72
2022/09/04 12:12:57;;;;;;;4.93;3.10;;;;;;;28.03;72.57;100753.91;5046168;28;20057;-71
2022/09/04 12:15:32;;;;;;;3.17;1.42;;;;;;;27.41;66.89;100744.00;5061704;28;20097;-71
2022/09/04 12:18:13;;;;;;;4.13;2.03;;;;;;;27.06;71.71;100747.22;5051906;28;20059;-72
2022/09/04 12:21:19;;;;;;;4.57;1.65;;;;;;;28.85;67.56;100747.63;5052917;28;20398;-72
2022/09/04 12:24:13;;;;;;;5.95;1.55;;;;;;;29.95;61.41;100760.03;5046381;28;20052;-73
2022/09/04 12:26:57;;;;;;;3.40;1.25;;;;;;;29.13;61.59;100756.75;5037422;28;20589;-71
2022/09/04 12:29:28;;;;;;;3.35;1.67;;;;;;;29.00;64.30;100753.03;5038846;28;20093;-71
2022/09/04 12:32:18;;;;;;;5.07;1.30;;;;;;;28.81;62.28;100751.72;5035423;28;20140;-71
2022/09/04 12:35:34;;;;;;;2.45;1.30;;;;;;;29.98;59.43;100756.94;5035985;28;20033;-71
2022/09/04 12:38:25;;;;;;;3.10;1.35;;;;;;;29.69;58.29;100744.31;5022206;28;20037;-71
2022/09/04 12:41:00;;;;;;;3.13;1.40;;;;;;;28.69;59.92;100735.13;5037517;28;20055;-72
2022/09/04 12:43:36;;;;;;;3.40;1.52;;;;;;;29.69;61.11;100751.59;5041640;28;20110;-72